Time;durP1;ratioP1;P1;durP2;ratioP2;P2;SDS_P1;SDS_P2;PMS_P1;PMS_P2;Temp;Humidity;BMP_temperature;BMP_pressure;BME280_temperature;BME280_humidity;BME280_pressure;Samples;Min_cycle;Max_cycle;Signal;HPM_P1;HPM_P2
2022/01/05 00:02:05;;;;;;;7.00;1.33;;;;;;;18.03;47.39;100127.16;4892631;29;20854;-61
2022/01/05 00:04:30;;;;;;;5.95;0.95;;;;;;;18.02;48.65;100137.94;4902097;29;20080;-61
2022/01/05 00:06:56;;;;;;;4.70;1.17;;;;;;;17.96;48.01;100130.59;4911891;29;20059;-62
2022/01/05 00:09:21;;;;;;;5.50;1.00;;;;;;;18.00;48.58;100137.25;4911620;29;20135;-61
2022/01/05 00:11:47;;;;;;;5.05;1.20;;;;;;;17.96;47.95;100125.28;4907993;29;20135;-61
2022/01/05 00:14:12;;;;;;;5.13;1.00;;;;;;;17.98;48.21;100118.00;4930150;29;20079;-62
2022/01/05 00:16:38;;;;;;;4.38;1.02;;;;;;;17.93;47.76;100125.59;4930712;29;20123;-62
2022/01/05 00:19:03;;;;;;;4.78;1.02;;;;;;;17.93;47.71;100128.25;4932477;29;20132;-62
2022/01/05 00:21:29;;;;;;;4.88;1.10;;;;;;;17.89;48.03;100127.69;4934531;29;20083;-61
2022/01/05 00:23:54;;;;;;;4.78;0.85;;;;;;;17.83;47.60;100119.50;4934424;29;20048;-61
2022/01/05 00:26:20;;;;;;;4.43;0.90;;;;;;;17.87;47.63;100115.59;4933795;29;20055;-61
2022/01/05 00:28:45;;;;;;;5.45;1.02;;;;;;;17.86;47.69;100125.34;4934135;29;20071;-62
2022/01/05 00:31:10;;;;;;;5.53;1.00;;;;;;;17.86;47.67;100132.47;4932437;29;20040;-62
2022/01/05 00:33:36;;;;;;;6.47;1.10;;;;;;;17.78;47.18;100126.13;4896239;29;20124;-61
2022/01/05 00:36:01;;;;;;;7.15;1.20;;;;;;;17.77;47.33;100119.16;4910244;29;20509;-62
2022/01/05 00:38:27;;;;;;;5.97;1.25;;;;;;;17.74;47.40;100127.38;4910573;29;20122;-62
2022/01/05 00:40:52;;;;;;;5.10;0.80;;;;;;;17.74;47.96;100138.00;4896053;29;20496;-61
2022/01/05 00:43:18;;;;;;;4.82;0.90;;;;;;;17.74;47.76;100127.38;4895950;29;20128;-61
2022/01/05 00:45:43;;;;;;;6.03;0.85;;;;;;;17.73;47.27;100130.16;4910855;29;20075;-61
2022/01/05 00:48:09;;;;;;;5.55;0.80;;;;;;;17.74;47.78;100130.03;4895575;29;20497;-62
2022/01/05 00:50:34;;;;;;;4.10;0.63;;;;;;;17.75;47.77;100129.03;4910858;29;20401;-61
2022/01/05 00:53:00;;;;;;;5.75;1.20;;;;;;;17.70;47.90;100130.47;4896135;29;20045;-61
2022/01/05 00:55:29;;;;;;;7.60;1.48;;;;;;;17.64;47.87;100126.59;4895607;29;20051;-61
2022/01/05 00:57:55;;;;;;;7.18;1.10;;;;;;;17.69;47.57;100124.34;4895724;29;20103;-61
2022/01/05 01:00:20;;;;;;;5.00;1.02;;;;;;;17.71;47.56;100129.50;4895468;29;20060;-61
2022/01/05 01:02:45;;;;;;;5.75;1.20;;;;;;;17.64;47.06;100126.59;4907085;29;20062;-61
2022/01/05 01:05:13;;;;;;;5.03;1.30;;;;;;;17.61;47.16;100131.38;4914213;29;20059;-62
2022/01/05 01:07:38;;;;;;;7.68;1.20;;;;;;;17.61;47.40;100137.50;4914423;29;20044;-61
2022/01/05 01:10:04;;;;;;;5.68;1.15;;;;;;;17.58;47.46;100137.84;4914058;29;20496;-61
2022/01/05 01:12:30;;;;;;;5.38;1.10;;;;;;;17.61;46.93;100126.88;4916260;29;20090;-62
2022/01/05 01:14:55;;;;;;;5.85;1.08;;;;;;;17.58;47.83;100127.22;4916313;29;20051;-61
2022/01/05 01:17:22;;;;;;;4.43;1.25;;;;;;;17.55;47.45;100127.53;4932823;29;20134;-61
2022/01/05 01:19:47;;;;;;;5.43;1.10;;;;;;;17.58;47.60;100135.19;4931908;29;20563;-61
2022/01/05 01:22:13;;;;;;;6.40;1.27;;;;;;;17.54;47.40;100131.13;4933093;29;20044;-61
2022/01/05 01:24:39;;;;;;;5.85;0.85;;;;;;;17.57;47.28;100136.16;4933278;29;20043;-61
2022/01/05 01:27:05;;;;;;;6.43;1.30;;;;;;;17.54;47.19;100123.19;4932885;29;20047;-62
2022/01/05 01:29:30;;;;;;;6.90;1.20;;;;;;;17.55;47.39;100124.88;4932155;29;20117;-61
2022/01/05 01:31:56;;;;;;;6.03;1.00;;;;;;;17.49;47.32;100130.78;4920107;29;20505;-61
2022/01/05 01:34:23;;;;;;;7.93;1.23;;;;;;;17.46;47.32;100129.25;4901765;29;20044;-61
2022/01/05 01:36:48;;;;;;;7.55;1.20;;;;;;;17.45;47.24;100119.59;4895263;29;20079;-61
2022/01/05 01:39:14;;;;;;;6.45;1.17;;;;;;;17.43;47.17;100120.75;4894822;29;20052;-61
2022/01/05 01:41:39;;;;;;;7.05;1.27;;;;;;;17.40;47.07;100121.06;4895316;29;20489;-61
2022/01/05 01:44:05;;;;;;;6.55;1.00;;;;;;;17.40;48.18;100131.66;4894843;29;20159;-62
2022/01/05 01:46:30;;;;;;;5.93;1.30;;;;;;;17.44;47.75;100125.91;4878310;29;20131;-61
2022/01/05 01:48:56;;;;;;;8.20;1.50;;;;;;;17.40;47.12;100129.84;4894953;29;20127;-61
2022/01/05 01:51:21;;;;;;;6.07;1.13;;;;;;;17.42;47.53;100134.97;4894669;29;20048;-62
2022/01/05 01:53:46;;;;;;;9.93;1.30;;;;;;;17.47;47.89;100140.69;4895015;29;20037;-61
2022/01/05 01:56:12;;;;;;;5.35;1.30;;;;;;;17.39;47.06;100127.31;4894204;29;20136;-61
2022/01/05 01:58:37;;;;;;;6.97;1.40;;;;;;;17.39;47.60;100137.94;4878450;29;20043;-61
2022/01/05 02:01:03;;;;;;;10.05;1.77;;;;;;;17.34;47.15;100131.25;4899915;29;20556;-62
2022/01/05 02:03:28;;;;;;;8.05;1.33;;;;;;;17.33;47.46;100136.72;4896681;29;20043;-61
2022/01/05 02:05:54;;;;;;;6.78;1.20;;;;;;;17.34;47.43;100125.97;4913604;29;20051;-61
2022/01/05 02:08:19;;;;;;;6.28;1.33;;;;;;;17.34;47.49;100128.63;4913161;29;20135;-61
2022/01/05 02:10:44;;;;;;;6.97;1.10;;;;;;;17.33;47.90;100132.25;4901295;29;20071;-61
2022/01/05 02:13:10;;;;;;;7.03;1.10;;;;;;;17.24;46.89;100135.78;4932072;29;20043;-62
2022/01/05 02:15:35;;;;;;;8.20;1.77;;;;;;;17.29;47.11;100128.22;4932209;29;20130;-61
2022/01/05 02:20:29;;;;;;;7.50;1.48;;;;;;;17.24;46.93;100135.78;4932314;29;20052;-61
2022/01/05 02:22:55;;;;;;;6.57;1.33;;;;;;;17.23;47.06;100135.91;4915132;29;20038;-61
2022/01/05 02:25:21;;;;;;;8.55;1.55;;;;;;;17.27;47.59;100146.09;4931473;29;20207;-61
2022/01/05 02:27:47;;;;;;;4.82;1.20;;;;;;;17.28;47.12;100134.50;4931928;29;20044;-61
2022/01/05 02:30:17;;;;;;;10.20;1.48;;;;;;;17.22;47.73;100143.03;4902287;29;20144;-61
2022/01/05 02:32:43;;;;;;;7.57;1.35;;;;;;;17.26;46.98;100144.41;4894257;29;20122;-61
2022/01/05 02:35:08;;;;;;;6.70;1.25;;;;;;;17.16;46.98;100138.34;4893753;29;20251;-61
2022/01/05 02:37:40;;;;;;;6.40;1.30;;;;;;;17.20;47.24;100142.34;4908475;29;20186;-61
2022/01/05 02:40:07;;;;;;;7.03;1.27;;;;;;;17.15;46.99;100141.16;4893562;29;20131;-62
2022/01/05 02:42:32;;;;;;;5.15;1.25;;;;;;;17.19;47.66;100143.34;4877028;29;20051;-61
2022/01/05 02:44:58;;;;;;;7.18;1.33;;;;;;;17.20;47.44;100142.34;4908307;29;20341;-61
2022/01/05 02:47:23;;;;;;;5.38;1.38;;;;;;;17.14;46.85;100134.16;4892959;29;20093;-62
2022/01/05 02:49:48;;;;;;;6.55;1.25;;;;;;;17.15;47.54;100146.44;4877140;29;20092;-61
2022/01/05 02:52:15;;;;;;;7.07;1.27;;;;;;;17.14;47.64;100137.63;4876718;29;20394;-61
2022/01/05 02:54:43;;;;;;;5.53;1.20;;;;;;;17.12;47.44;100134.31;4861797;29;20047;-61
2022/01/05 02:57:08;;;;;;;7.35;1.35;;;;;;;17.12;47.21;100147.56;4893494;29;20124;-61
2022/01/05 02:59:34;;;;;;;8.77;1.70;;;;;;;17.08;47.57;100143.56;4893535;29;20067;-61
2022/01/05 03:01:59;;;;;;;6.85;1.27;;;;;;;17.08;48.02;100154.16;4877109;29;20128;-61
2022/01/05 03:04:26;;;;;;;7.57;1.35;;;;;;;17.08;47.02;100146.19;4893357;29;20754;-61
2022/01/05 03:06:52;;;;;;;7.38;1.38;;;;;;;17.08;47.75;100146.19;4893779;29;20044;-62
2022/01/05 03:09:17;;;;;;;8.93;1.45;;;;;;;17.08;47.47;100157.63;4876440;29;20037;-61
2022/01/05 03:11:43;;;;;;;9.10;1.45;;;;;;;17.07;47.24;100160.41;4918634;29;20042;-61
2022/01/05 03:14:51;;;;;;;6.85;1.50;;;;;;;17.02;47.24;100152.09;4913930;29;20079;-62
2022/01/05 03:18:21;;;;;;;8.40;1.42;;;;;;;17.00;47.28;100152.22;4931090;29;20051;-61
2022/01/05 03:20:47;;;;;;;5.80;1.20;;;;;;;17.03;47.86;100159.03;4893223;29;20585;-61
2022/01/05 03:26:48;;;;;;;7.88;1.27;;;;;;;16.93;47.01;100153.78;4892959;29;20526;-61
2022/01/05 03:29:13;;;;;;;6.05;1.10;;;;;;;16.95;47.98;100177.47;4892748;29;20072;-61
2022/01/05 03:31:39;;;;;;;8.98;1.20;;;;;;;16.90;47.38;100175.25;4876613;29;20120;-61
2022/01/05 03:34:05;;;;;;;6.03;1.15;;;;;;;16.90;47.58;100156.72;4892756;29;20084;-62
2022/01/05 03:36:31;;;;;;;5.88;0.95;;;;;;;16.91;47.67;100168.16;4893162;29;20044;-61
2022/01/05 03:38:56;;;;;;;6.90;1.77;;;;;;;16.93;47.49;100152.94;4893055;29;20041;-61
2022/01/05 03:41:21;;;;;;;6.18;1.27;;;;;;;16.92;47.34;100161.84;4876121;29;20049;-61
2022/01/05 03:43:47;;;;;;;6.03;1.05;;;;;;;16.87;46.70;100160.50;4893251;29;20068;-61
2022/01/05 03:46:13;;;;;;;6.20;1.20;;;;;;;16.84;47.00;100158.13;4892799;29;20041;-61
2022/01/05 03:48:39;;;;;;;5.93;1.25;;;;;;;16.79;47.16;100155.06;4893140;29;20386;-61
2022/01/05 03:51:04;;;;;;;6.25;1.00;;;;;;;16.80;47.56;100159.41;4892716;29;20044;-61
2022/01/05 03:53:30;;;;;;;7.20;1.25;;;;;;;16.84;47.12;100168.72;4894880;29;20463;-61
2022/01/05 03:55:55;;;;;;;8.05;1.50;;;;;;;16.83;47.58;100176.81;4897015;29;20056;-62
2022/01/05 03:58:20;;;;;;;4.93;1.15;;;;;;;16.84;47.50;100168.72;4896498;29;20048;-61
2022/01/05 04:00:48;;;;;;;7.93;1.50;;;;;;;16.87;47.48;100171.09;4896965;29;20072;-61
2022/01/05 04:03:13;;;;;;;7.20;1.45;;;;;;;16.81;46.82;100155.75;4896445;29;20045;-61
2022/01/05 04:05:38;;;;;;;6.20;1.27;;;;;;;16.83;47.18;100160.94;4896908;29;20635;-61
2022/01/05 04:08:04;;;;;;;6.72;1.45;;;;;;;16.79;47.99;100165.66;4896349;29;20041;-62
2022/01/05 04:10:30;;;;;;;6.32;1.20;;;;;;;16.79;47.76;100167.47;4885953;29;20044;-61
2022/01/05 04:12:55;;;;;;;6.28;1.15;;;;;;;16.77;47.21;100170.28;4934569;29;20623;-61
2022/01/05 04:15:20;;;;;;;5.88;1.02;;;;;;;16.80;47.86;100169.16;4934010;29;20381;-61
2022/01/05 04:17:46;;;;;;;5.38;1.20;;;;;;;16.76;47.17;100173.06;4930810;29;20043;-61
2022/01/05 04:20:12;;;;;;;8.45;1.40;;;;;;;16.75;47.16;100174.88;4896179;29;20051;-61
2022/01/05 04:22:38;;;;;;;6.60;1.20;;;;;;;16.75;47.65;100182.81;4895679;29;20527;-61
2022/01/05 04:25:04;;;;;;;5.43;1.25;;;;;;;16.76;47.27;100183.66;4896193;29;20048;-61
2022/01/05 04:27:29;;;;;;;8.60;1.40;;;;;;;16.70;47.94;100185.03;4896654;29;20040;-61
2022/01/05 04:29:54;;;;;;;5.80;1.48;;;;;;;16.71;47.11;100191.19;4896769;29;20119;-61
2022/01/05 04:32:20;;;;;;;6.65;1.20;;;;;;;16.69;47.38;100188.66;4896259;29;20053;-62
2022/01/05 04:34:45;;;;;;;5.80;1.35;;;;;;;16.68;47.63;100184.34;4896214;29;20044;-61
2022/01/05 04:37:11;;;;;;;6.93;1.40;;;;;;;16.69;47.50;100185.19;4895808;29;20153;-61
2022/01/05 04:39:36;;;;;;;9.15;1.77;;;;;;;16.61;47.15;100191.22;4896299;29;20049;-61
2022/01/05 04:42:02;;;;;;;5.60;1.10;;;;;;;16.64;47.34;100198.88;4878930;29;20045;-62
2022/01/05 04:44:28;;;;;;;6.30;1.40;;;;;;;16.62;46.70;100200.81;4896352;29;20071;-61
2022/01/05 04:46:53;;;;;;;7.05;1.38;;;;;;;16.56;46.92;100188.13;4896017;29;20052;-61
2022/01/05 04:49:19;;;;;;;8.88;1.52;;;;;;;16.58;47.53;100186.19;4895686;29;20053;-61
2022/01/05 04:51:44;;;;;;;6.22;1.48;;;;;;;16.59;47.60;100196.63;4895947;29;20048;-61
2022/01/05 04:54:09;;;;;;;7.25;1.20;;;;;;;16.58;47.15;100197.63;4910137;29;20053;-61
2022/01/05 04:56:35;;;;;;;7.85;1.45;;;;;;;16.64;47.51;100191.75;4879161;29;20048;-61
2022/01/05 04:59:00;;;;;;;5.45;1.33;;;;;;;16.56;47.79;100210.16;4895305;29;20040;-63
2022/01/05 05:01:26;;;;;;;7.97;1.58;;;;;;;16.53;47.38;100205.13;4895825;29;20056;-61
2022/01/05 05:03:51;;;;;;;8.52;1.33;;;;;;;16.53;47.33;100202.50;4895607;29;20124;-61
2022/01/05 05:06:17;;;;;;;8.25;1.30;;;;;;;16.52;48.12;100195.53;4895523;29;20507;-61
2022/01/05 05:08:42;;;;;;;7.78;1.55;;;;;;;16.49;47.63;100195.00;4910402;29;20056;-61
2022/01/05 05:11:07;;;;;;;6.30;1.48;;;;;;;16.49;47.90;100195.00;4894211;29;20673;-62
2022/01/05 05:13:33;;;;;;;9.27;1.75;;;;;;;16.52;47.79;100197.34;4933298;29;20063;-61
2022/01/05 05:15:58;;;;;;;5.70;1.50;;;;;;;16.51;48.02;100196.50;4933410;29;20516;-61
2022/01/05 05:18:24;;;;;;;6.50;1.55;;;;;;;16.48;47.45;100193.28;4917612;29;20153;-61
2022/01/05 05:20:49;;;;;;;6.75;1.40;;;;;;;16.43;47.76;100199.84;4895607;29;20389;-61
2022/01/05 05:23:16;;;;;;;9.93;1.80;;;;;;;16.43;47.26;100199.84;4908432;29;20580;-62
2022/01/05 05:25:41;;;;;;;4.85;0.95;;;;;;;16.46;47.98;100197.91;4914365;29;20056;-61
2022/01/05 05:28:07;;;;;;;5.35;1.27;;;;;;;16.50;48.07;100199.28;4913721;29;20056;-62
2022/01/05 05:30:33;;;;;;;9.98;1.48;;;;;;;16.53;47.81;100199.00;4914432;29;20051;-61
2022/01/05 05:32:59;;;;;;;5.70;1.40;;;;;;;16.54;47.61;100205.97;4914472;29;20048;-61
2022/01/05 05:35:26;;;;;;;6.03;1.17;;;;;;;16.58;47.21;100202.09;4913729;29;20044;-61
2022/01/05 05:37:51;;;;;;;7.88;1.30;;;;;;;16.66;48.02;100194.25;4914031;29;20037;-61
2022/01/05 05:40:17;;;;;;;4.70;1.15;;;;;;;16.72;48.08;100206.09;4913646;29;20064;-61
2022/01/05 05:42:42;;;;;;;7.88;1.33;;;;;;;16.80;47.98;100191.19;4914168;29;20059;-61
2022/01/05 05:45:08;;;;;;;6.72;1.38;;;;;;;16.82;48.02;100206.94;4896526;29;20040;-61
2022/01/05 05:47:33;;;;;;;8.00;1.48;;;;;;;16.84;47.69;100197.88;4912338;29;20048;-61
2022/01/05 05:49:59;;;;;;;6.10;1.20;;;;;;;16.98;47.87;100207.16;4878239;29;20048;-61
2022/01/05 05:52:24;;;;;;;9.45;1.38;;;;;;;17.07;47.51;100205.47;4894520;29;20049;-61
2022/01/05 05:54:51;;;;;;;7.35;1.48;;;;;;;17.15;48.11;100202.94;4894781;29;20049;-61
2022/01/05 05:57:16;;;;;;;6.70;1.27;;;;;;;17.23;47.73;100210.97;4905874;29;20036;-61
2022/01/05 05:59:41;;;;;;;6.75;1.40;;;;;;;17.31;47.77;100210.25;4912796;29;20123;-61
2022/01/05 06:02:07;;;;;;;6.78;1.58;;;;;;;17.37;47.85;100206.19;4913206;29;20477;-61
2022/01/05 06:04:32;;;;;;;6.90;1.35;;;;;;;17.46;47.97;100208.78;4913619;29;20072;-61
2022/01/05 06:06:58;;;;;;;8.15;1.55;;;;;;;17.56;47.67;100208.75;4906692;29;20072;-61
2022/01/05 06:09:23;;;;;;;8.50;1.52;;;;;;;17.58;47.55;100204.13;4894115;29;20075;-61
2022/01/05 06:11:49;;;;;;;6.60;1.70;;;;;;;17.68;47.62;100198.78;4921063;29;20484;-61
2022/01/05 06:14:14;;;;;;;5.20;1.05;;;;;;;17.64;47.64;100210.63;4931721;29;20090;-61
2022/01/05 06:16:40;;;;;;;6.60;1.60;;;;;;;17.68;47.77;100207.56;4931814;29;20040;-61
2022/01/05 06:19:05;;;;;;;4.82;1.08;;;;;;;17.72;47.78;100206.28;4931995;29;20441;-61
2022/01/05 06:21:31;;;;;;;6.30;1.20;;;;;;;17.80;48.05;100203.75;4932419;29;20054;-61
2022/01/05 06:23:56;;;;;;;6.47;1.48;;;;;;;17.79;47.50;100207.38;4932296;29;20066;-61
2022/01/05 06:26:22;;;;;;;5.40;1.30;;;;;;;17.86;47.25;100204.94;4930360;29;20106;-61
2022/01/05 06:28:48;;;;;;;6.75;0.98;;;;;;;17.89;47.51;100215.25;4932076;29;20035;-61
2022/01/05 06:31:13;;;;;;;5.90;1.30;;;;;;;17.97;47.75;100217.19;4931630;29;20500;-61
2022/01/05 06:33:38;;;;;;;6.57;1.17;;;;;;;18.02;48.15;100229.03;4932106;29;20066;-60
2022/01/05 06:36:04;;;;;;;4.38;1.02;;;;;;;18.09;47.92;100226.59;4931543;29;20136;-60
2022/01/05 06:38:30;;;;;;;6.32;1.40;;;;;;;18.12;48.06;100220.97;4898538;29;20044;-60
2022/01/05 06:40:55;;;;;;;6.28;1.30;;;;;;;18.09;47.87;100231.91;4894230;29;20103;-60
2022/01/05 06:43:20;;;;;;;9.93;1.77;;;;;;;18.12;47.63;100236.09;4897288;29;20847;-60
2022/01/05 06:45:46;;;;;;;7.03;1.20;;;;;;;18.11;48.12;100226.44;4899840;29;20044;-60
2022/01/05 06:48:11;;;;;;;7.28;1.40;;;;;;;18.09;48.29;100215.97;4904684;29;20052;-60
2022/01/05 06:50:37;;;;;;;8.35;1.48;;;;;;;18.09;48.37;100221.28;4904922;29;20048;-60
2022/01/05 06:53:02;;;;;;;5.57;1.45;;;;;;;18.14;48.56;100228.78;4896551;29;20450;-61
2022/01/05 06:55:28;;;;;;;7.53;1.30;;;;;;;18.17;48.13;100226.66;4893636;29;20071;-60
2022/01/05 06:57:53;;;;;;;6.82;1.30;;;;;;;18.19;48.34;100222.03;4877056;29;20502;-60
2022/01/05 07:00:20;;;;;;;9.18;1.35;;;;;;;18.21;48.55;100245.81;4893287;29;20076;-60
2022/01/05 07:02:45;;;;;;;7.28;1.25;;;;;;;18.23;48.27;100234.00;4893771;29;20116;-60
2022/01/05 07:05:10;;;;;;;8.43;1.65;;;;;;;18.23;48.19;100234.00;4891756;29;20048;-62
2022/01/05 07:07:37;;;;;;;5.63;1.27;;;;;;;18.28;48.25;100249.50;4888954;29;20611;-61
2022/01/05 07:10:04;;;;;;;5.40;1.27;;;;;;;18.32;48.81;100242.91;4902620;29;20040;-62
2022/01/05 07:12:30;;;;;;;6.28;1.20;;;;;;;18.36;48.40;100259.34;4914340;29;20048;-62
2022/01/05 07:14:55;;;;;;;6.88;1.42;;;;;;;18.37;48.83;100245.94;4931040;29;20055;-62
2022/01/05 07:17:21;;;;;;;8.63;1.55;;;;;;;18.40;48.66;100266.88;4930786;29;20075;-62
2022/01/05 07:19:46;;;;;;;7.10;1.58;;;;;;;18.39;48.74;100257.22;4922027;29;20068;-62
2022/01/05 07:22:11;;;;;;;7.78;1.30;;;;;;;18.43;48.70;100271.06;4910425;29;20044;-62
2022/01/05 07:24:37;;;;;;;7.13;1.65;;;;;;;18.43;49.17;100265.75;4909821;29;20411;-62
2022/01/05 07:27:03;;;;;;;7.22;1.75;;;;;;;18.44;49.24;100280.69;4892522;29;20043;-62
2022/01/05 07:29:28;;;;;;;7.63;1.70;;;;;;;18.46;49.06;100270.75;4902879;29;20056;-62
2022/01/05 07:31:53;;;;;;;8.48;1.73;;;;;;;18.36;48.49;100283.25;4893475;29;20140;-62
2022/01/05 07:34:19;;;;;;;5.25;1.13;;;;;;;18.44;48.88;100299.28;4910853;29;20044;-62
2022/01/05 07:36:44;;;;;;;5.57;1.10;;;;;;;18.45;49.26;100290.31;4909108;29;20055;-62
2022/01/05 07:39:10;;;;;;;8.30;1.40;;;;;;;18.46;49.02;100282.22;4905195;29;20759;-62
2022/01/05 07:41:35;;;;;;;6.28;1.33;;;;;;;18.47;48.98;100293.66;4911790;29;20044;-62
2022/01/05 07:44:01;;;;;;;6.03;1.38;;;;;;;18.47;48.79;100297.16;4911457;29;20040;-62
2022/01/05 07:46:27;;;;;;;6.72;1.38;;;;;;;18.50;48.94;100285.41;4903188;29;20080;-62
2022/01/05 07:48:52;;;;;;;7.03;1.63;;;;;;;18.50;48.64;100304.00;4917472;29;20091;-62
2022/01/05 07:51:18;;;;;;;8.07;1.60;;;;;;;18.50;49.28;100302.16;4903759;29;20408;-62
2022/01/05 07:53:43;;;;;;;6.35;1.25;;;;;;;18.54;48.71;100300.03;4897596;29;20096;-61
2022/01/05 07:56:08;;;;;;;8.30;1.60;;;;;;;18.54;49.14;100310.66;4892451;29;20037;-62
2022/01/05 07:58:38;;;;;;;9.10;1.55;;;;;;;18.56;49.28;100292.75;4892689;29;20135;-60
2022/01/05 08:01:03;;;;;;;14.07;1.20;;;;;;;18.58;49.34;100314.66;4892352;29;20045;-62
2022/01/05 08:03:32;;;;;;;9.25;1.52;;;;;;;18.59;49.26;100320.84;4897059;29;20116;-62
2022/01/05 08:05:58;;;;;;;8.00;1.33;;;;;;;18.61;48.81;100310.88;4898286;29;20033;-62
2022/01/05 08:08:23;;;;;;;10.57;1.40;;;;;;;18.63;49.21;100309.75;4892324;29;20457;-61
2022/01/05 08:10:49;;;;;;;10.32;1.70;;;;;;;18.61;48.75;100321.50;4909301;29;20715;-62
2022/01/05 08:13:14;;;;;;;9.27;1.75;;;;;;;18.62;48.76;100308.09;4911430;29;20071;-62
2022/01/05 08:15:40;;;;;;;8.25;1.50;;;;;;;18.61;48.67;100321.50;4907017;29;20048;-61
2022/01/05 08:18:05;;;;;;;9.70;1.98;;;;;;;18.62;48.86;100321.38;4892779;29;20524;-63
2022/01/05 08:20:31;;;;;;;10.38;1.65;;;;;;;18.61;49.17;100326.81;4903836;29;20516;-60
2022/01/05 08:22:56;;;;;;;10.07;1.75;;;;;;;18.61;48.92;100332.97;4908855;29;20047;-60
2022/01/05 08:25:22;;;;;;;10.00;1.98;;;;;;;18.59;48.82;100326.16;4905285;29;20044;-59
2022/01/05 08:27:47;;;;;;;9.93;2.10;;;;;;;18.58;49.31;100327.13;4908716;29;20032;-59
2022/01/05 08:30:17;;;;;;;10.02;1.50;;;;;;;18.59;48.80;100340.28;4904837;29;20100;-62
2022/01/05 08:32:43;;;;;;;10.20;1.90;;;;;;;18.57;48.78;100334.25;4900871;29;20060;-58
2022/01/05 08:35:10;;;;;;;14.05;1.77;;;;;;;18.55;48.25;100361.97;4891823;29;20122;-57
2022/01/05 08:37:36;;;;;;;9.90;1.80;;;;;;;18.54;49.36;100366.44;4903863;29;20110;-56
2022/01/05 08:40:02;;;;;;;8.48;1.60;;;;;;;18.53;48.88;100367.44;4912934;29;20131;-60
2022/01/05 08:42:28;;;;;;;14.02;1.95;;;;;;;18.49;48.58;100344.81;4913936;29;20587;-58
2022/01/05 08:44:53;;;;;;;11.80;1.85;;;;;;;18.46;48.70;100350.44;4912939;29;20056;-57
2022/01/05 08:47:19;;;;;;;11.60;2.00;;;;;;;18.44;49.38;100363.84;4905957;29;20273;-58
2022/01/05 08:49:44;;;;;;;13.13;2.10;;;;;;;18.41;48.74;100358.00;4906260;29;20119;-55
2022/01/05 08:52:10;;;;;;;12.48;2.17;;;;;;;18.44;49.42;100363.03;4904874;29;20482;-58
2022/01/05 08:54:35;;;;;;;16.75;2.15;;;;;;;18.45;48.93;100370.00;4905753;29;20560;-58
2022/01/05 08:57:01;;;;;;;11.45;1.80;;;;;;;18.46;49.09;100366.38;4903180;29;20044;-62
2022/01/05 08:59:26;;;;;;;12.88;2.03;;;;;;;18.46;48.79;100371.69;4893139;29;20123;-59
2022/01/05 09:01:51;;;;;;;9.77;1.77;;;;;;;18.45;48.65;100365.50;4907334;29;20524;-58
2022/01/05 09:04:17;;;;;;;13.00;2.20;;;;;;;18.39;48.22;100371.41;4905156;29;21757;-57
2022/01/05 09:06:43;;;;;;;13.63;1.90;;;;;;;18.40;48.34;100388.22;4904364;29;20052;-60
2022/01/05 09:09:08;;;;;;;8.70;1.80;;;;;;;18.42;48.32;100383.56;4906725;29;20056;-59
2022/01/05 09:11:34;;;;;;;11.93;1.83;;;;;;;18.42;48.41;100387.06;4910105;29;20052;-58
2022/01/05 09:14:00;;;;;;;9.75;2.10;;;;;;;18.44;48.57;100398.38;4901241;29;20052;-59
2022/01/05 09:16:25;;;;;;;12.15;2.20;;;;;;;18.39;47.91;100445.78;4904236;29;20047;-58
2022/01/05 09:18:51;;;;;;;12.25;2.00;;;;;;;18.39;48.36;100413.09;4909606;29;20803;-59
2022/01/05 09:21:16;;;;;;;12.57;2.30;;;;;;;18.42;48.89;100402.16;4905075;29;20036;-58
2022/01/05 09:23:43;;;;;;;12.32;1.80;;;;;;;18.40;48.28;100407.63;4908270;29;20036;-58
2022/01/05 09:26:09;;;;;;;11.27;2.25;;;;;;;18.36;47.95;100434.63;4899080;29;20049;-58
2022/01/05 09:28:40;;;;;;;13.85;1.80;;;;;;;18.39;48.39;100421.06;4905485;29;20067;-59
2022/01/05 09:31:06;;;;;;;10.85;2.08;;;;;;;18.35;47.42;100423.16;4901062;29;20107;-60
2022/01/05 09:33:31;;;;;;;14.00;1.77;;;;;;;18.37;48.08;100447.78;4901894;29;20748;-58
2022/01/05 09:36:05;;;;;;;14.65;2.17;;;;;;;18.40;48.09;100428.88;4907329;29;20056;-58
2022/01/05 09:41:56;;;;;;;13.98;2.50;;;;;;;18.37;47.87;100445.13;4911528;29;20048;-57
2022/01/05 09:44:11;;;;;;;15.52;2.30;;;;;;;18.39;47.62;100450.25;4884771;29;20609;-57
2022/01/05 09:47:14;;;;;;;15.75;2.40;;;;;;;18.43;47.89;100441.03;4904192;29;20497;-56
2022/01/05 09:49:46;;;;;;;10.80;1.90;;;;;;;18.48;47.97;100460.00;4892467;29;20087;-58
2022/01/05 09:52:13;;;;;;;10.82;2.05;;;;;;;18.46;48.21;100454.84;4895809;29;20093;-58
2022/01/05 09:54:42;;;;;;;9.10;1.70;;;;;;;18.50;48.45;100468.69;4897608;29;20049;-58
2022/01/05 09:57:11;;;;;;;10.65;1.80;;;;;;;18.53;47.94;100475.53;4894466;29;20051;-57
2022/01/05 09:59:36;;;;;;;9.07;1.75;;;;;;;18.53;48.42;100486.97;4899032;29;20040;-58
2022/01/05 10:02:03;;;;;;;7.95;1.88;;;;;;;18.55;48.37;100477.06;4909988;29;20048;-57
2022/01/05 10:04:29;;;;;;;8.18;1.88;;;;;;;18.56;49.00;100484.03;4881975;29;20148;-53
2022/01/05 10:06:54;;;;;;;9.45;1.50;;;;;;;18.62;48.94;100498.53;4894706;29;20036;-57
2022/01/05 10:09:20;;;;;;;9.13;1.80;;;;;;;18.62;48.83;100507.34;4893337;29;20234;-58
2022/01/05 10:11:45;;;;;;;11.18;1.77;;;;;;;18.62;48.82;100520.63;4913305;29;20114;-57
2022/01/05 10:14:13;;;;;;;9.82;1.65;;;;;;;18.62;48.91;100498.53;4892643;29;20099;-57
2022/01/05 10:16:42;;;;;;;8.15;2.10;;;;;;;18.66;48.97;100515.84;4903430;29;20513;-58
2022/01/05 10:19:19;;;;;;;8.30;1.85;;;;;;;18.65;48.99;100515.03;4902339;29;20451;-56
2022/01/05 10:21:44;;;;;;;9.50;1.67;;;;;;;18.63;49.00;100511.66;4910423;29;20064;-58
2022/01/05 10:24:10;;;;;;;12.80;1.92;;;;;;;18.60;48.59;100506.66;4897906;29;20079;-57
2022/01/05 10:26:38;;;;;;;10.15;1.70;;;;;;;18.62;49.14;100522.47;4899404;29;20063;-58
2022/01/05 10:29:17;;;;;;;10.55;1.95;;;;;;;18.64;48.74;100517.81;4897760;29;20048;-57
2022/01/05 10:31:43;;;;;;;9.73;1.63;;;;;;;18.66;48.95;100551.22;4898877;29;20609;-57
2022/01/05 10:34:20;;;;;;;11.23;1.88;;;;;;;18.66;48.99;100548.56;4903852;29;20040;-57
2022/01/05 10:36:46;;;;;;;10.82;1.73;;;;;;;18.64;49.31;100545.22;4905752;29;20118;-57
2022/01/05 10:39:12;;;;;;;8.93;1.42;;;;;;;18.64;49.11;100541.72;4904535;29;20032;-57
2022/01/05 10:41:37;;;;;;;10.50;1.83;;;;;;;18.58;48.67;100567.03;4901814;29;20393;-58
2022/01/05 10:44:11;;;;;;;10.77;1.67;;;;;;;18.56;48.97;100568.22;4900000;29;20059;-57
2022/01/05 10:46:38;;;;;;;13.52;2.30;;;;;;;18.56;48.73;100563.72;4908145;29;20072;-57
2022/01/05 10:49:04;;;;;;;14.55;2.00;;;;;;;18.58;49.31;100559.06;4897313;29;20055;-58
2022/01/05 10:51:30;;;;;;;8.48;1.55;;;;;;;18.61;49.17;100557.97;4895439;29;20519;-58
2022/01/05 10:54:29;;;;;;;9.10;1.92;;;;;;;18.63;49.60;100564.81;4908552;29;20115;-58
2022/01/05 10:57:06;;;;;;;7.10;1.55;;;;;;;18.67;49.63;100579.47;4912403;29;20060;-55
2022/01/05 10:59:37;;;;;;;8.00;1.58;;;;;;;18.68;49.01;100591.78;4913124;29;20076;-58
2022/01/05 11:02:22;;;;;;;8.65;1.83;;;;;;;18.67;49.48;100578.63;4912608;29;20075;-61
2022/01/05 11:04:47;;;;;;;9.77;1.65;;;;;;;18.69;49.24;100597.94;4912313;29;20416;-62
2022/01/05 11:07:19;;;;;;;8.55;1.52;;;;;;;18.72;49.29;100601.16;4912343;29;20051;-62
2022/01/05 11:09:58;;;;;;;7.05;1.65;;;;;;;18.72;49.76;100603.81;4895704;29;20043;-62
2022/01/05 11:12:42;;;;;;;11.68;1.70;;;;;;;18.74;49.74;100593.06;4925727;29;20212;-62
2022/01/05 11:15:26;;;;;;;10.68;2.05;;;;;;;18.73;49.57;100600.16;4892804;28;20564;-62
2022/01/05 11:18:04;;;;;;;10.65;1.75;;;;;;;18.77;49.00;100610.50;4924018;29;20032;-62
2022/01/05 11:20:30;;;;;;;8.73;1.67;;;;;;;18.76;49.24;100600.88;4912722;29;20138;-62
2022/01/05 11:22:55;;;;;;;6.47;1.35;;;;;;;18.76;49.15;100606.19;4894330;29;20127;-62
2022/01/05 11:25:21;;;;;;;7.47;1.55;;;;;;;18.70;49.45;100612.88;4877061;29;20139;-62
2022/01/05 11:27:46;;;;;;;11.10;2.20;;;;;;;18.56;49.23;100605.41;4879911;29;20040;-61
2022/01/05 11:30:12;;;;;;;11.27;1.48;;;;;;;18.64;49.47;100603.66;4907760;29;20039;-62
2022/01/05 11:32:37;;;;;;;9.43;1.92;;;;;;;18.68;49.33;100610.38;4896521;29;20052;-62